Disclaimer

Please do not use the information listed here in-flight or in-navigation, as they are not provided to us by the airports but are provided by volunteers, so they might be outdated.

Search


Regions


Airport information page

Radio informations:
KATHMANDU GND - 121.9 MHz

Airport informations:
Latitude: 27° 41' 47.70" N
Longitude: 085° 21' 32.76" E
Elevation: 4390 feet - 1338 meters
Operating hours: Remarks
Operating agency: Civil government, landing fees and diplomatic clearance may be required
Timezone: UTC+5:45
Fuel: Jet A1+, Jet A1 with icing inhibitor.

Runway information:
02/20 - 10007 x 148 feet< - >3050 x 45 meters

Recent METARs:
VNKT 182250Z 15003KT 4000 BR FEW015 09/08 Q1020 NOSIG
VNKT 182350Z 12002 4000 BR FEW015 08/08 Q1021 NOSIG
VNKT 190020Z 10003KT 3000 BR FEW010 08/08 Q1022 NOSIG

Airport on the map: